Terminal Aerodrome Forecast
Issued by NWS Wakefield, VA

Home | Current Version | Previous Version | Text Only | Print | Product List | Glossary On
Versions: 1 2 3 4 5 6 7 8 9 10 11 12 13 14 15 16 17
000
FTUS41 KAKQ 221100
TAFECG
TAF
KECG 221127Z 2212/2312 30010G18KT P6SM SCT010 OVC050
      TEMPO 2212/2216 5SM -RA BR BKN010
     FM221700 31016G25KT P6SM -RA BKN020 OVC040
     FM230000 31014G23KT P6SM BKN030
     FM230600 30013G20KT P6SM SCT050=

USA.gov is the U.S. government's official web portal to all federal, state and local government web resources and services.